Ocean Jupiter — CFK3107 — position and weather

sailwx.info

Track history (hours):
 
Tides and Currents Weather Stations Pressure Air Temp Water Temp Dewpoint Dewpoint Depression Visibility Wind Speed Wind Dir Waves Ship Positions

Ocean Jupiter

Last reported at 2016-Oct-05 17:33 UTC. Time now 2016-Dec-02 20:16 UTC.
Position N 46°03' W 073°07'.
Warning: this ship's position is 58 days out of date.

Length 24 m; draft 3.2 m.

Type: Tug. MMSI: 316008255.

Date/timePositionNaut miles runAvg speedWind from/ knotsBaromVisibWave heightAir tempDewpointWater temp
2016-Oct-05 17:33N 46°03' W 073°07'0 0.1
2016-Oct-05 13:33N 46°03' W 073°07'0 0.1
2016-Oct-05 10:33N 46°03' W 073°07'0 0.0
2016-Oct-05 09:33N 46°03' W 073°07'0 0.0
2016-Oct-05 08:33N 46°03' W 073°07'0 0.0
2016-Oct-05 07:33N 46°03' W 073°07'0 0.0
2016-Oct-05 01:33N 46°03' W 073°07'0 0.0
2016-Oct-05 00:33N 46°03' W 073°07'0 0.0
2016-Oct-04 21:33N 46°03' W 073°07'0 0.0
2016-Oct-04 18:33N 46°03' W 073°07'0 0.0
2016-Oct-04 15:33N 46°03' W 073°07'0 0.0
2016-Oct-04 14:33N 46°03' W 073°07'0 0.0
2016-Oct-04 13:33N 46°03' W 073°07'0 0.0
2016-Oct-04 12:33N 46°03' W 073°07'0 0.0
2016-Oct-04 10:34N 46°03' W 073°07'1 0.6
2016-Oct-04 08:33N 46°03' W 073°09'1 1.1
2016-Oct-04 07:33N 46°03' W 073°07'0 0.0
2016-Oct-04 04:34N 46°03' W 073°07'1 0.4
2016-Oct-04 02:33N 46°03' W 073°08'1 0.3
2016-Oct-03 23:34N 46°03' W 073°07'0 0.0
2016-Oct-03 20:33N 46°03' W 073°07'0 0.0
2016-Oct-03 19:33N 46°03' W 073°07'1 0.5
2016-Oct-03 17:34N 46°03' W 073°08'14 2.4
2016-Oct-03 11:34N 45°50' W 073°17'6 5.6
2016-Oct-03 10:34N 45°55' W 073°13'9 8.6
2016-Oct-03 09:33N 46°03' W 073°09'1 0.3
2016-Oct-03 05:33N 46°03' W 073°07'0 0.0
2016-Oct-03 04:34N 46°03' W 073°07'0 0.0
2016-Oct-02 18:34N 46°03' W 073°07'0 0.0
2016-Oct-02 15:33N 46°03' W 073°07'0 0.0
2016-Oct-02 14:33N 46°03' W 073°07'0 0.0
2016-Oct-02 12:34N 46°03' W 073°07'0 0.1
2016-Oct-02 09:34N 46°03' W 073°07'1 0.7
2016-Oct-02 08:33N 46°03' W 073°07'1 0.7
2016-Oct-02 07:33N 46°03' W 073°07'0 0.0
2016-Oct-01 22:34N 46°03' W 073°07'0 0.0
2016-Oct-01 21:33N 46°03' W 073°07'0 0.0
2016-Oct-01 20:34N 46°03' W 073°07'0 0.0
2016-Oct-01 15:33N 46°03' W 073°07'0 0.0
2016-Oct-01 14:34N 46°03' W 073°07'0 0.0
2016-Oct-01 13:33N 46°03' W 073°07'0 0.0
2016-Oct-01 04:34N 46°03' W 073°07'0 0.0
2016-Oct-01 03:33N 46°03' W 073°07'0 0.0
2016-Oct-01 00:33N 46°03' W 073°07'0 0.0
2016-Sep-30 22:34N 46°03' W 073°07'0 0.0
2016-Sep-30 20:33N 46°03' W 073°07'0 0.0
2016-Sep-30 17:33N 46°03' W 073°07'0 0.0
2016-Sep-30 16:34N 46°03' W 073°07'0 0.0
2016-Sep-30 14:34N 46°03' W 073°07'0 0.0
2016-Sep-30 13:33N 46°03' W 073°07'0 0.0
2016-Sep-30 10:34N 46°03' W 073°07'11 5.3
2016-Sep-30 08:33N 45°54' W 073°14'3 1.6
2016-Sep-30 06:33N 45°51' W 073°17'14 4.6
2016-Sep-30 03:33N 46°03' W 073°07'0 0.0
2016-Sep-30 02:33N 46°03' W 073°07'0 0.0
2016-Sep-29 23:33N 46°03' W 073°07'0 0.0
2016-Sep-29 21:33N 46°03' W 073°07'0 0.0
2016-Sep-29 20:33N 46°03' W 073°07'0 0.0
2016-Sep-29 19:34N 46°03' W 073°07'0 0.0
2016-Sep-29 16:33N 46°03' W 073°07'0 0.0
2016-Sep-29 15:34N 46°03' W 073°07'0 0.0
2016-Sep-29 14:34N 46°03' W 073°07'0 0.2
2016-Sep-29 13:34N 46°03' W 073°07'0 0.0
2016-Sep-29 08:34N 46°03' W 073°07'0 0.0
2016-Sep-29 07:34N 46°03' W 073°07'0 0.0
2016-Sep-29 00:33N 46°03' W 073°07'0 0.0
2016-Sep-28 21:34N 46°03' W 073°07'0 0.2
2016-Sep-28 19:33N 46°03' W 073°07'0 0.1
2016-Sep-28 16:33N 46°03' W 073°07'1 0.7
2016-Sep-28 15:33N 46°02' W 073°07'1 0.2
2016-Sep-28 12:34N 46°03' W 073°07'5 1.3
2016-Sep-28 08:34N 45°59' W 073°11'5 1.0
2016-Sep-28 03:33N 46°03' W 073°07'0 0.0
2016-Sep-28 02:33N 46°03' W 073°07'0 0.0
2016-Sep-28 01:34N 46°03' W 073°07'0 0.0
2016-Sep-27 23:33N 46°03' W 073°07'13 3.4
2016-Sep-27 19:33N 45°51' W 073°16'13 2.7
2016-Sep-27 14:33N 46°03' W 073°07'0 0.0
2016-Sep-27 13:33N 46°03' W 073°07'1 0.3
2016-Sep-27 10:33N 46°02' W 073°07'1 0.1
2016-Sep-27 00:34N 46°03' W 073°07'15 3.7
2016-Sep-26 20:33N 45°50' W 073°17'0 0.1
2016-Sep-26 19:33N 45°50' W 073°17'15 3.7
2016-Sep-26 15:31N 46°03' W 073°07'0 0.0
2016-Sep-26 13:32N 46°03' W 073°07'0 0.0
2016-Sep-26 11:33N 46°03' W 073°07'0 0.0
2016-Sep-26 08:33N 46°03' W 073°07'0 0.0
2016-Sep-26 02:33N 46°03' W 073°07'0 0.0
2016-Sep-26 01:34N 46°03' W 073°07'0 0.0
2016-Sep-26 00:33N 46°03' W 073°07'0 0.0
2016-Sep-25 21:34N 46°03' W 073°07'0 0.0
2016-Sep-25 17:33N 46°03' W 073°07'  
Track history (hours):
 
Tides and Currents Weather Stations Pressure Air Temp Water Temp Dewpoint Dewpoint Depression Visibility Wind Speed Wind Dir Waves Ship Positions

Ocean Jupiter

Last reported at 2016-Oct-05 17:33 UTC. Time now 2016-Dec-02 20:16 UTC.
Position N 46°03' W 073°07'.
Warning: this ship's position is 58 days out of date.

Length 24 m; draft 3.2 m.

Type: Tug. MMSI: 316008255.

Date/timePositionNaut miles runAvg speedWind from/ knotsBaromVisibWave heightAir tempDewpointWater temp
2016-Oct-05 17:33N 46°03' W 073°07'0 0.1
2016-Oct-05 13:33N 46°03' W 073°07'0 0.1
2016-Oct-05 10:33N 46°03' W 073°07'0 0.0
2016-Oct-05 09:33N 46°03' W 073°07'0 0.0
2016-Oct-05 08:33N 46°03' W 073°07'0 0.0
2016-Oct-05 07:33N 46°03' W 073°07'0 0.0
2016-Oct-05 01:33N 46°03' W 073°07'0 0.0
2016-Oct-05 00:33N 46°03' W 073°07'0 0.0
2016-Oct-04 21:33N 46°03' W 073°07'0 0.0
2016-Oct-04 18:33N 46°03' W 073°07'0 0.0
2016-Oct-04 15:33N 46°03' W 073°07'0 0.0
2016-Oct-04 14:33N 46°03' W 073°07'0 0.0
2016-Oct-04 13:33N 46°03' W 073°07'0 0.0
2016-Oct-04 12:33N 46°03' W 073°07'0 0.0
2016-Oct-04 10:34N 46°03' W 073°07'1 0.6
2016-Oct-04 08:33N 46°03' W 073°09'1 1.1
2016-Oct-04 07:33N 46°03' W 073°07'0 0.0
2016-Oct-04 04:34N 46°03' W 073°07'1 0.4
2016-Oct-04 02:33N 46°03' W 073°08'1 0.3
2016-Oct-03 23:34N 46°03' W 073°07'0 0.0
2016-Oct-03 20:33N 46°03' W 073°07'0 0.0
2016-Oct-03 19:33N 46°03' W 073°07'1 0.5
2016-Oct-03 17:34N 46°03' W 073°08'14 2.4
2016-Oct-03 11:34N 45°50' W 073°17'6 5.6
2016-Oct-03 10:34N 45°55' W 073°13'9 8.6
2016-Oct-03 09:33N 46°03' W 073°09'1 0.3
2016-Oct-03 05:33N 46°03' W 073°07'0 0.0
2016-Oct-03 04:34N 46°03' W 073°07'0 0.0
2016-Oct-02 18:34N 46°03' W 073°07'0 0.0
2016-Oct-02 15:33N 46°03' W 073°07'0 0.0
2016-Oct-02 14:33N 46°03' W 073°07'0 0.0
2016-Oct-02 12:34N 46°03' W 073°07'0 0.1
2016-Oct-02 09:34N 46°03' W 073°07'1 0.7
2016-Oct-02 08:33N 46°03' W 073°07'1 0.7
2016-Oct-02 07:33N 46°03' W 073°07'0 0.0
2016-Oct-01 22:34N 46°03' W 073°07'0 0.0
2016-Oct-01 21:33N 46°03' W 073°07'0 0.0
2016-Oct-01 20:34N 46°03' W 073°07'0 0.0
2016-Oct-01 15:33N 46°03' W 073°07'0 0.0
2016-Oct-01 14:34N 46°03' W 073°07'0 0.0
2016-Oct-01 13:33N 46°03' W 073°07'0 0.0
2016-Oct-01 04:34N 46°03' W 073°07'0 0.0
2016-Oct-01 03:33N 46°03' W 073°07'0 0.0
2016-Oct-01 00:33N 46°03' W 073°07'0 0.0
2016-Sep-30 22:34N 46°03' W 073°07'0 0.0
2016-Sep-30 20:33N 46°03' W 073°07'0 0.0
2016-Sep-30 17:33N 46°03' W 073°07'0 0.0
2016-Sep-30 16:34N 46°03' W 073°07'0 0.0
2016-Sep-30 14:34N 46°03' W 073°07'0 0.0
2016-Sep-30 13:33N 46°03' W 073°07'0 0.0
2016-Sep-30 10:34N 46°03' W 073°07'11 5.3
2016-Sep-30 08:33N 45°54' W 073°14'3 1.6
2016-Sep-30 06:33N 45°51' W 073°17'14 4.6
2016-Sep-30 03:33N 46°03' W 073°07'0 0.0
2016-Sep-30 02:33N 46°03' W 073°07'0 0.0
2016-Sep-29 23:33N 46°03' W 073°07'0 0.0
2016-Sep-29 21:33N 46°03' W 073°07'0 0.0
2016-Sep-29 20:33N 46°03' W 073°07'0 0.0
2016-Sep-29 19:34N 46°03' W 073°07'0 0.0
2016-Sep-29 16:33N 46°03' W 073°07'0 0.0
2016-Sep-29 15:34N 46°03' W 073°07'0 0.0
2016-Sep-29 14:34N 46°03' W 073°07'0 0.2
2016-Sep-29 13:34N 46°03' W 073°07'0 0.0
2016-Sep-29 08:34N 46°03' W 073°07'0 0.0
2016-Sep-29 07:34N 46°03' W 073°07'0 0.0
2016-Sep-29 00:33N 46°03' W 073°07'0 0.0
2016-Sep-28 21:34N 46°03' W 073°07'0 0.2
2016-Sep-28 19:33N 46°03' W 073°07'0 0.1
2016-Sep-28 16:33N 46°03' W 073°07'1 0.7
2016-Sep-28 15:33N 46°02' W 073°07'1 0.2
2016-Sep-28 12:34N 46°03' W 073°07'5 1.3
2016-Sep-28 08:34N 45°59' W 073°11'5 1.0
2016-Sep-28 03:33N 46°03' W 073°07'0 0.0
2016-Sep-28 02:33N 46°03' W 073°07'0 0.0
2016-Sep-28 01:34N 46°03' W 073°07'0 0.0
2016-Sep-27 23:33N 46°03' W 073°07'13 3.4
2016-Sep-27 19:33N 45°51' W 073°16'13 2.7
2016-Sep-27 14:33N 46°03' W 073°07'0 0.0
2016-Sep-27 13:33N 46°03' W 073°07'1 0.3
2016-Sep-27 10:33N 46°02' W 073°07'1 0.1
2016-Sep-27 00:34N 46°03' W 073°07'15 3.7
2016-Sep-26 20:33N 45°50' W 073°17'0 0.1
2016-Sep-26 19:33N 45°50' W 073°17'15 3.7
2016-Sep-26 15:31N 46°03' W 073°07'0 0.0
2016-Sep-26 13:32N 46°03' W 073°07'0 0.0
2016-Sep-26 11:33N 46°03' W 073°07'0 0.0
2016-Sep-26 08:33N 46°03' W 073°07'0 0.0
2016-Sep-26 02:33N 46°03' W 073°07'0 0.0
2016-Sep-26 01:34N 46°03' W 073°07'0 0.0
2016-Sep-26 00:33N 46°03' W 073°07'0 0.0
2016-Sep-25 21:34N 46°03' W 073°07'0 0.0
2016-Sep-25 17:33N 46°03' W 073°07'  

Dump ship's entire track history